createdAt,value
2022-08-05T00:01:30.143Z,100838.99
2022-08-05T00:06:43.814Z,100837.15
2022-08-05T00:11:56.129Z,100835.36
2022-08-05T00:17:18.772Z,100838.13
2022-08-05T00:22:27.201Z,100836.34
2022-08-05T00:27:36.442Z,100835.38
2022-08-05T00:32:43.727Z,100835.23
2022-08-05T00:37:54.526Z,100834.65
2022-08-05T00:43:07.644Z,100828.39
2022-08-05T00:48:16.774Z,100827.30
2022-08-05T00:54:00.359Z,100831.23
2022-08-05T00:58:52.596Z,100831.17
2022-08-05T01:04:01.377Z,100832.17
2022-08-05T01:09:08.396Z,100829.60
2022-08-05T01:14:27.800Z,100829.95
2022-08-05T01:20:01.440Z,100831.34
2022-08-05T01:25:39.797Z,100821.75
2022-08-05T01:30:55.289Z,100814.58
2022-08-05T01:36:13.086Z,100818.11
2022-08-05T01:41:25.959Z,100819.14
2022-08-05T01:46:42.332Z,100816.17
2022-08-05T01:51:52.390Z,100818.19
2022-08-05T01:58:13.193Z,100816.70
2022-08-05T02:02:31.466Z,100829.69
2022-08-05T02:07:56.283Z,100849.11
2022-08-05T02:13:16.555Z,100852.42
2022-08-05T02:18:34.213Z,100848.75
2022-08-05T02:23:46.008Z,100851.18
2022-08-05T02:28:55.430Z,100853.95
2022-08-05T02:34:10.194Z,100852.48
2022-08-05T02:39:21.553Z,100849.67
2022-08-05T02:44:30.058Z,100839.19
2022-08-05T02:49:40.647Z,100852.84
2022-08-05T02:54:50.736Z,100858.11
2022-08-05T02:59:59.686Z,100862.09
2022-08-05T03:05:12.386Z,100860.69
2022-08-05T03:10:22.127Z,100857.72
2022-08-05T03:15:32.195Z,100859.57
2022-08-05T03:20:44.627Z,100859.22
2022-08-05T03:26:04.695Z,100863.67
2022-08-05T03:31:55.456Z,100892.91
2022-08-05T03:36:52.349Z,100875.63
2022-08-05T03:41:59.655Z,100874.02
2022-08-05T03:47:09.487Z,100878.19
2022-08-05T03:52:37.528Z,100879.14
2022-08-05T03:57:56.624Z,100880.05
2022-08-05T04:03:07.992Z,100883.36
2022-08-05T04:08:34.905Z,100883.80
2022-08-05T04:13:50.085Z,100884.11
2022-08-05T04:18:58.480Z,100884.79
2022-08-05T04:24:19.161Z,100880.75
2022-08-05T04:29:29.810Z,100881.69
2022-08-05T04:34:42.907Z,100878.86
2022-08-05T04:39:52.812Z,100884.29
2022-08-05T04:45:02.565Z,100881.23
2022-08-05T04:50:11.758Z,100883.54
2022-08-05T04:55:21.139Z,100889.41
2022-08-05T05:00:46.734Z,100884.42
2022-08-05T05:06:35.886Z,100892.80
2022-08-05T05:11:25.451Z,100889.55
2022-08-05T05:16:50.527Z,100895.38
2022-08-05T05:21:57.650Z,100893.30
2022-08-05T05:27:13.348Z,100891.56
2022-08-05T05:32:24.456Z,100885.96
2022-08-05T05:37:58.814Z,100887.64
2022-08-05T05:43:00.198Z,100887.41
2022-08-05T05:48:09.549Z,100890.97
2022-08-05T05:53:21.959Z,100900.34
2022-08-05T05:58:31.630Z,100901.20
2022-08-05T06:04:00.936Z,100899.34
2022-08-05T06:09:08.237Z,100897.88
2022-08-05T06:14:15.219Z,100893.52
2022-08-05T06:19:26.162Z,100896.36
2022-08-05T06:24:48.322Z,100895.75
2022-08-05T06:30:02.772Z,100898.19
2022-08-05T06:35:21.612Z,100906.73
2022-08-05T06:40:44.292Z,100898.62
2022-08-05T06:46:03.796Z,100896.79
2022-08-05T06:51:23.939Z,100893.55
2022-08-05T06:56:36.658Z,100897.66
2022-08-05T07:01:44.148Z,100898.97
2022-08-05T07:06:53.168Z,100901.65
2022-08-05T07:12:00.351Z,100901.78
2022-08-05T07:18:00.457Z,100895.20
2022-08-05T07:22:35.617Z,100894.96
2022-08-05T07:27:57.251Z,100898.59
2022-08-05T07:33:09.947Z,100892.63
2022-08-05T07:38:26.411Z,100891.94
2022-08-05T07:43:41.904Z,100892.73
2022-08-05T07:49:04.183Z,100904.70
2022-08-05T07:54:12.794Z,100908.03
2022-08-05T07:59:23.207Z,100909.13
2022-08-05T08:04:38.405Z,100905.14
2022-08-05T08:09:45.870Z,100904.50
2022-08-05T08:14:53.047Z,100903.30
2022-08-05T08:20:10.700Z,100900.90
2022-08-05T08:26:00.145Z,100896.20
2022-08-05T08:30:56.257Z,100894.48
2022-08-05T08:36:29.842Z,100900.96
2022-08-05T08:41:52.710Z,100892.45
2022-08-05T08:47:01.608Z,100877.27
2022-08-05T08:52:14.811Z,100865.63
2022-08-05T08:57:22.610Z,100866.22
2022-08-05T09:02:30.480Z,100856.96
2022-08-05T09:07:39.703Z,100843.20
2022-08-05T09:13:05.239Z,100820.43
2022-08-05T09:18:13.440Z,100769.95
2022-08-05T09:23:22.124Z,100746.63
2022-08-05T09:28:31.841Z,100748.92
2022-08-05T09:33:52.285Z,100738.45
2022-08-05T09:39:02.434Z,100774.08
2022-08-05T09:44:09.539Z,100792.39
2022-08-05T09:49:54.668Z,100794.59
2022-08-05T09:55:55.418Z,100793.27
2022-08-05T10:00:31.502Z,100762.57
2022-08-05T10:05:38.837Z,100774.53
2022-08-05T10:10:54.288Z,100767.89
2022-08-05T10:16:02.090Z,100726.91
2022-08-05T10:21:15.636Z,100675.06
2022-08-05T10:26:31.761Z,100636.55
2022-08-05T10:32:55.448Z,100641.14
2022-08-05T10:37:07.935Z,100687.17
2022-08-05T10:42:32.419Z,100609.41
2022-08-05T10:47:56.147Z,100602.94
2022-08-05T10:53:39.239Z,100623.64
2022-08-05T10:59:12.692Z,100564.35
2022-08-05T11:04:43.643Z,100382.08
2022-08-05T11:10:09.740Z,100384.58
2022-08-05T11:15:23.585Z,100443.70
2022-08-05T11:20:52.213Z,100479.60
2022-08-05T11:26:10.606Z,100424.81
2022-08-05T11:31:54.409Z,100497.31
2022-08-05T11:37:02.804Z,100436.14
2022-08-05T11:42:30.927Z,100453.22
2022-08-05T11:47:49.558Z,100404.73
2022-08-05T11:52:58.426Z,100464.75
2022-08-05T11:58:10.649Z,100492.30
2022-08-05T12:03:28.494Z,100378.36
2022-08-05T12:08:50.861Z,100381.54
2022-08-05T12:14:04.133Z,100254.80
2022-08-05T12:20:26.185Z,100015.14
2022-08-05T12:24:49.358Z,99393.69
2022-08-05T12:30:05.069Z,98949.79
2022-08-05T12:35:16.932Z,98781.60
2022-08-05T12:40:32.189Z,98572.21
2022-08-05T12:45:48.321Z,98477.81
2022-08-05T12:52:10.156Z,98449.56
2022-08-05T12:56:51.043Z,98443.90
2022-08-05T13:02:07.206Z,97623.83
2022-08-05T13:07:17.233Z,97268.52
2022-08-05T13:12:23.994Z,97471.50
2022-08-05T13:17:41.838Z,97483.30
2022-08-05T13:22:52.782Z,97440.22
2022-08-05T13:28:00.056Z,97213.98
2022-08-05T13:33:07.485Z,97111.45
2022-08-05T13:38:20.377Z,97125.95
2022-08-05T13:43:44.021Z,97032.75
2022-08-05T13:48:58.018Z,97252.98
2022-08-05T13:54:11.881Z,97230.77
2022-08-05T13:59:21.160Z,97387.73
2022-08-05T14:04:51.346Z,97280.27
2022-08-05T14:09:58.850Z,97342.43
2022-08-05T14:16:04.519Z,97464.89
2022-08-05T14:20:34.333Z,97533.27
2022-08-05T14:25:44.892Z,97566.33
2022-08-05T14:30:52.289Z,97566.64
2022-08-05T14:36:02.115Z,97511.05
2022-08-05T14:41:09.392Z,97664.94
2022-08-05T14:46:17.018Z,97693.79
2022-08-05T14:51:24.040Z,97722.41
2022-08-05T14:56:31.648Z,97772.36
2022-08-05T15:01:48.373Z,97673.04
2022-08-05T15:06:56.231Z,97512.37
2022-08-05T15:12:03.944Z,97638.09
2022-08-05T15:17:44.534Z,98263.34
2022-08-05T15:22:38.824Z,98171.23
2022-08-05T15:27:52.471Z,98811.23
2022-08-05T15:33:01.835Z,99177.59
2022-08-05T15:38:34.146Z,99369.27
2022-08-05T15:43:45.807Z,99435.02
2022-08-05T15:49:01.389Z,99486.82
2022-08-05T15:54:17.906Z,99484.42
2022-08-05T15:59:25.471Z,99510.30
2022-08-05T16:04:36.508Z,99498.92
2022-08-05T16:09:43.767Z,99527.16
2022-08-05T16:14:50.836Z,99528.73
2022-08-05T16:20:04.842Z,99533.95
2022-08-05T16:25:14.710Z,99531.86
2022-08-05T16:30:25.514Z,99537.05
2022-08-05T16:35:41.841Z,99542.06
2022-08-05T16:40:55.133Z,99550.51
2022-08-05T16:46:23.637Z,99550.56
2022-08-05T16:51:42.758Z,99546.55
2022-08-05T16:56:58.090Z,99549.89
2022-08-05T17:02:05.070Z,99538.05
2022-08-05T17:07:12.736Z,99522.17
2022-08-05T17:12:22.614Z,99514.85
2022-08-05T17:17:51.257Z,99499.21
2022-08-05T17:23:02.188Z,99484.39
2022-08-05T17:28:10.061Z,99470.23
2022-08-05T17:33:17.054Z,99450.98
2022-08-05T17:38:23.957Z,99423.17
2022-08-05T17:43:50.637Z,99399.45
2022-08-05T17:48:58.149Z,99359.04
2022-08-05T17:54:05.208Z,99305.98
2022-08-05T17:59:10.525Z,99187.27
2022-08-05T18:04:21.155Z,99149.07
2022-08-05T18:09:58.907Z,98963.42
2022-08-05T18:15:01.181Z,98875.87
2022-08-05T18:20:14.945Z,98770.48
2022-08-05T18:25:22.195Z,98540.94
2022-08-05T18:30:33.210Z,98353.73
2022-08-05T18:36:00.122Z,98406.36
2022-08-05T18:41:56.093Z,98430.17
2022-08-05T18:46:36.632Z,98434.41
2022-08-05T18:52:05.668Z,98445.48
2022-08-05T18:57:18.097Z,98474.40
2022-08-05T19:02:31.110Z,98498.66
2022-08-05T19:07:42.347Z,98554.76
2022-08-05T19:12:53.574Z,98600.17
2022-08-05T19:18:09.575Z,98743.05
2022-08-05T19:24:03.795Z,98996.96
2022-08-05T19:28:45.247Z,99118.42
2022-08-05T19:33:56.569Z,99141.86
2022-08-05T19:39:04.057Z,99169.95
2022-08-05T19:44:13.197Z,99199.48
2022-08-05T19:49:22.507Z,99228.40
2022-08-05T19:54:31.915Z,99261.96
2022-08-05T19:59:54.549Z,99278.00
2022-08-05T20:05:43.207Z,99292.16
2022-08-05T20:11:06.043Z,99292.46
2022-08-05T20:16:14.130Z,99297.56
2022-08-05T20:21:27.922Z,99292.56
2022-08-05T20:26:37.816Z,99310.29
2022-08-05T20:31:53.566Z,99337.33
2022-08-05T20:37:04.822Z,99369.30
2022-08-05T20:42:25.342Z,99415.39
2022-08-05T20:47:40.089Z,99366.67
2022-08-05T20:52:48.051Z,99358.02
2022-08-05T20:57:55.363Z,99383.70
2022-08-05T21:03:06.882Z,99370.73
2022-08-05T21:08:14.731Z,99368.92
2022-08-05T21:13:37.838Z,99024.00
2022-08-05T21:18:48.480Z,98999.48
2022-08-05T21:23:55.796Z,99017.20
2022-08-05T21:29:03.710Z,99036.10
2022-08-05T21:34:11.396Z,99073.31
2022-08-05T21:39:26.934Z,99113.13
2022-08-05T21:44:35.165Z,99173.95
2022-08-05T21:49:48.291Z,99275.58
2022-08-05T21:55:09.449Z,99288.16
2022-08-05T22:00:18.623Z,99280.69
2022-08-05T22:05:27.267Z,99269.59
2022-08-05T22:10:34.494Z,99263.67
2022-08-05T22:16:00.750Z,99278.63
2022-08-05T22:21:18.697Z,99320.30
2022-08-05T22:26:49.654Z,99346.91
2022-08-05T22:32:02.886Z,99406.55
2022-08-05T22:37:10.369Z,99468.45
2022-08-05T22:42:25.406Z,99498.60
2022-08-05T22:47:33.403Z,99513.77
2022-08-05T22:52:43.933Z,99512.48
2022-08-05T22:57:51.273Z,99482.98
2022-08-05T23:02:58.344Z,99457.13
2022-08-05T23:08:05.785Z,99324.86
2022-08-05T23:13:12.787Z,99384.50
2022-08-05T23:18:19.737Z,99448.81
2022-08-05T23:23:30.061Z,99496.92
2022-08-05T23:28:43.211Z,99539.95
2022-08-05T23:34:04.982Z,99568.73
2022-08-05T23:39:17.516Z,99588.38
2022-08-05T23:44:39.265Z,99606.27
2022-08-05T23:49:52.044Z,99596.40
2022-08-05T23:55:07.131Z,99605.61
